Stewartsville, Missouri
Current Conditions -  °F | °C
As of 12:53 AM on Friday 28 Nov 2014 (Local Time) from KSTJ Reporting Station
Clear Clear  
Wind Chill: -7°   Ceiling: Unl
Heat Index: -1°   Visibility: 10mi
Dew Point: -5°   Wind: 14mph
Humidity: 75%   Direction: 170°S
Pressure: 30.18"   Gusts: NA
Location:  39.75°N, 94.5°W
Report Text: KSTJ 280653Z AUTO 17012KT 10SM CLR M01/M05 A3018 RMK AO2 PRESFR SLP229 T10111050
Loading
Personal Weather Stations






























Interactive Weather Map New forecast layout! Learn more

10-Day Weather Forecast

Advertisements
Track Severe Weather on mobile